createdAt,value
2022-11-13T00:02:23.875Z,49.40
2022-11-13T00:07:45.584Z,49.66
2022-11-13T00:13:07.259Z,49.82
2022-11-13T00:18:32.474Z,49.22
2022-11-13T00:23:56.060Z,49.31
2022-11-13T00:29:17.754Z,49.62
2022-11-13T00:34:49.212Z,49.73
2022-11-13T00:40:11.230Z,49.73
2022-11-13T00:45:32.875Z,49.53
2022-11-13T00:50:55.142Z,49.64
2022-11-13T00:56:16.831Z,49.44
2022-11-13T01:01:38.538Z,49.49
2022-11-13T01:07:00.398Z,49.51
2022-11-13T01:12:22.204Z,49.51
2022-11-13T01:17:43.866Z,49.45
2022-11-13T01:23:05.612Z,49.00
2022-11-13T01:28:27.617Z,49.15
2022-11-13T01:33:49.753Z,49.33
2022-11-13T01:39:12.424Z,49.25
2022-11-13T01:44:53.820Z,49.02
2022-11-13T01:50:15.510Z,49.19
2022-11-13T01:55:37.181Z,49.19
2022-11-13T02:00:58.936Z,49.14
2022-11-13T02:06:22.112Z,48.83
2022-11-13T02:11:44.267Z,48.79
2022-11-13T02:17:11.539Z,48.96
2022-11-13T02:22:41.535Z,48.73
2022-11-13T02:28:03.185Z,49.00
2022-11-13T02:33:30.232Z,48.74
2022-11-13T02:38:54.183Z,49.08
2022-11-13T02:44:15.895Z,48.86
2022-11-13T02:49:37.585Z,48.98
2022-11-13T02:54:59.334Z,48.71
2022-11-13T03:00:21.010Z,48.50
2022-11-13T03:05:42.672Z,48.35
2022-11-13T03:11:09.770Z,48.63
2022-11-13T03:16:31.480Z,48.72
2022-11-13T03:21:53.146Z,48.65
2022-11-13T03:27:14.938Z,48.22
2022-11-13T03:32:36.605Z,48.48
2022-11-13T03:37:58.247Z,48.40
2022-11-13T03:43:20.143Z,48.26
2022-11-13T03:48:41.883Z,48.54
2022-11-13T03:54:04.148Z,48.51
2022-11-13T03:59:25.782Z,48.29
2022-11-13T04:04:47.490Z,48.34
2022-11-13T04:10:09.358Z,48.17
2022-11-13T04:15:31.134Z,48.42
2022-11-13T04:20:52.805Z,48.08
2022-11-13T04:26:14.526Z,47.99
2022-11-13T04:31:36.203Z,47.86
2022-11-13T04:36:58.179Z,48.14
2022-11-13T04:42:38.298Z,48.03
2022-11-13T04:48:00.010Z,47.92
2022-11-13T04:53:21.668Z,48.06
2022-11-13T04:58:43.415Z,47.86
2022-11-13T05:04:05.213Z,47.94
2022-11-13T05:09:26.889Z,48.23
2022-11-13T05:14:48.943Z,48.21
2022-11-13T05:20:11.395Z,47.83
2022-11-13T05:25:33.054Z,47.71
2022-11-13T05:31:02.382Z,48.08
2022-11-13T05:36:24.099Z,48.19
2022-11-13T05:41:45.779Z,47.71
2022-11-13T05:47:07.447Z,48.05
2022-11-13T05:52:29.117Z,48.09
2022-11-13T05:57:50.767Z,47.84
2022-11-13T06:03:12.394Z,47.67
2022-11-13T06:08:34.235Z,47.68
2022-11-13T06:13:56.901Z,47.63
2022-11-13T06:19:18.551Z,47.49
2022-11-13T06:24:40.181Z,47.70
2022-11-13T06:30:01.819Z,47.71
2022-11-13T06:35:23.468Z,47.78
2022-11-13T06:40:45.205Z,47.90
2022-11-13T06:46:11.753Z,47.35
2022-11-13T06:51:33.724Z,47.13
2022-11-13T06:56:55.482Z,46.44
2022-11-13T07:02:17.198Z,46.15
2022-11-13T07:07:38.930Z,45.56
2022-11-13T07:13:00.777Z,45.25
2022-11-13T07:18:23.978Z,45.29
2022-11-13T07:23:48.434Z,45.38
2022-11-13T07:29:10.112Z,45.29
2022-11-13T07:34:31.775Z,44.19
2022-11-13T07:39:53.467Z,41.91
2022-11-13T07:45:15.129Z,41.22
2022-11-13T07:50:38.806Z,41.37
2022-11-13T07:56:02.091Z,41.50
2022-11-13T08:01:23.926Z,41.10
2022-11-13T08:06:45.636Z,42.48
2022-11-13T08:12:07.659Z,43.21
2022-11-13T08:17:29.380Z,42.72
2022-11-13T08:22:51.509Z,43.63
2022-11-13T08:28:13.736Z,44.19
2022-11-13T08:33:35.393Z,45.16
2022-11-13T08:38:57.136Z,45.43
2022-11-13T08:44:18.893Z,45.79
2022-11-13T08:49:40.545Z,46.20
2022-11-13T08:55:02.176Z,46.69
2022-11-13T09:00:23.897Z,46.62
2022-11-13T09:05:45.582Z,47.09
2022-11-13T09:11:07.399Z,47.35
2022-11-13T09:16:29.126Z,47.08
2022-11-13T09:21:51.929Z,47.46
2022-11-13T09:27:13.656Z,47.12
2022-11-13T09:32:35.465Z,47.41
2022-11-13T09:37:57.148Z,47.22
2022-11-13T09:43:35.334Z,47.67
2022-11-13T09:49:07.117Z,47.76
2022-11-13T09:54:29.058Z,47.46
2022-11-13T10:00:07.283Z,47.64
2022-11-13T10:05:34.718Z,48.04
2022-11-13T10:11:16.402Z,47.84
2022-11-13T10:16:56.235Z,48.29
2022-11-13T10:22:32.857Z,48.29
2022-11-13T10:28:21.428Z,48.15
2022-11-13T10:33:44.697Z,48.22
2022-11-13T10:39:09.079Z,48.19
2022-11-13T10:44:37.992Z,48.00
2022-11-13T10:50:19.011Z,47.66
2022-11-13T10:55:41.464Z,47.79
2022-11-13T11:01:14.829Z,47.95
2022-11-13T11:12:30.706Z,47.53
2022-11-13T11:17:59.577Z,47.30
2022-11-13T11:24:03.153Z,47.73
2022-11-13T11:29:39.629Z,47.75
2022-11-13T11:35:12.616Z,47.59
2022-11-13T11:40:42.522Z,48.06
2022-11-13T11:46:04.772Z,48.02
2022-11-13T11:51:41.290Z,47.72
2022-11-13T11:57:38.478Z,47.83
2022-11-13T12:03:00.121Z,47.93
2022-11-13T12:08:37.926Z,47.90
2022-11-13T12:14:30.382Z,48.04
2022-11-13T12:20:26.250Z,47.85
2022-11-13T12:26:13.659Z,47.52
2022-11-13T12:31:41.066Z,47.84
2022-11-13T12:37:10.301Z,47.95
2022-11-13T12:42:55.273Z,47.89
2022-11-13T12:48:16.915Z,47.49
2022-11-13T12:53:53.497Z,47.68
2022-11-13T12:59:30.735Z,47.51
2022-11-13T13:05:19.453Z,47.40
2022-11-13T13:10:53.054Z,47.29
2022-11-13T13:16:24.184Z,46.94
2022-11-13T13:21:45.895Z,46.78
2022-11-13T13:27:25.419Z,46.25
2022-11-13T13:33:19.257Z,46.13
2022-11-13T13:38:56.041Z,46.28
2022-11-13T13:44:35.970Z,46.15
2022-11-13T13:49:58.342Z,46.55
2022-11-13T13:55:36.063Z,46.46
2022-11-13T14:01:18.436Z,46.15
2022-11-13T14:06:52.820Z,46.68
2022-11-13T14:12:20.155Z,46.31
2022-11-13T14:17:41.797Z,46.43
2022-11-13T14:23:03.600Z,46.92
2022-11-13T14:28:28.997Z,46.83
2022-11-13T14:33:50.873Z,46.77
2022-11-13T14:39:33.090Z,46.81
2022-11-13T14:45:05.268Z,46.83
2022-11-13T14:50:28.976Z,46.75
2022-11-13T14:55:53.250Z,46.73
2022-11-13T15:01:20.872Z,46.82
2022-11-13T15:06:42.532Z,46.92
2022-11-13T15:12:04.336Z,46.85
2022-11-13T15:17:26.047Z,46.77
2022-11-13T15:22:48.035Z,47.03
2022-11-13T15:28:09.815Z,47.18
2022-11-13T15:33:31.638Z,47.13
2022-11-13T15:38:53.668Z,46.90
2022-11-13T15:44:15.835Z,46.79
2022-11-13T15:49:37.616Z,47.08
2022-11-13T15:55:01.470Z,46.77
2022-11-13T16:00:25.782Z,46.31
2022-11-13T16:05:47.496Z,45.80
2022-11-13T16:11:15.013Z,45.50
2022-11-13T16:16:40.930Z,45.59
2022-11-13T16:22:02.538Z,45.20
2022-11-13T16:27:33.099Z,45.23
2022-11-13T16:32:54.742Z,45.07
2022-11-13T16:38:16.399Z,44.67
2022-11-13T16:43:38.521Z,44.71
2022-11-13T16:49:00.673Z,44.62
2022-11-13T16:54:22.618Z,44.47
2022-11-13T16:59:44.610Z,44.27
2022-11-13T17:05:06.756Z,44.35
2022-11-13T17:10:32.858Z,43.93
2022-11-13T17:21:17.221Z,43.69
2022-11-13T17:26:38.857Z,43.60
2022-11-13T17:32:00.598Z,43.72
2022-11-13T17:37:25.136Z,44.12
2022-11-13T17:42:48.637Z,44.38
2022-11-13T17:48:10.557Z,44.50
2022-11-13T17:53:33.189Z,45.13
2022-11-13T17:58:54.855Z,45.60
2022-11-13T18:04:16.475Z,45.75
2022-11-13T18:09:38.302Z,46.19
2022-11-13T18:14:59.919Z,46.57
2022-11-13T18:20:21.643Z,46.27
2022-11-13T18:25:43.634Z,46.53
2022-11-13T18:31:10.607Z,46.17
2022-11-13T18:36:33.306Z,46.10
2022-11-13T18:41:59.276Z,46.02
2022-11-13T18:47:23.702Z,45.94
2022-11-13T18:52:45.422Z,46.03
2022-11-13T18:58:07.057Z,46.11
2022-11-13T19:03:29.108Z,46.07
2022-11-13T19:09:03.265Z,46.16
2022-11-13T19:14:24.948Z,46.83
2022-11-13T19:19:46.608Z,47.06
2022-11-13T19:25:08.638Z,47.42
2022-11-13T19:30:30.586Z,47.36
2022-11-13T19:35:54.446Z,47.44
2022-11-13T19:41:16.130Z,48.12
2022-11-13T19:46:37.951Z,48.21
2022-11-13T19:51:59.625Z,48.21
2022-11-13T19:57:21.307Z,48.20
2022-11-13T20:02:43.191Z,48.89
2022-11-13T20:08:05.163Z,48.47
2022-11-13T20:13:26.872Z,48.63
2022-11-13T20:18:48.819Z,49.03
2022-11-13T20:24:10.570Z,49.04
2022-11-13T20:29:34.882Z,49.32
2022-11-13T20:34:56.551Z,48.83
2022-11-13T20:40:18.438Z,48.99
2022-11-13T20:45:40.153Z,49.11
2022-11-13T20:51:19.640Z,48.86
2022-11-13T20:56:41.394Z,48.62
2022-11-13T21:02:03.135Z,48.37
2022-11-13T21:07:24.969Z,48.13
2022-11-13T21:12:46.685Z,48.21
2022-11-13T21:18:08.476Z,48.14
2022-11-13T21:23:30.327Z,48.17
2022-11-13T21:28:56.810Z,48.19
2022-11-13T21:34:18.548Z,48.60
2022-11-13T21:39:40.228Z,48.40
2022-11-13T21:45:01.929Z,48.85
2022-11-13T21:50:23.668Z,48.54
2022-11-13T21:55:51.705Z,48.85
2022-11-13T22:01:13.897Z,48.77
2022-11-13T22:06:36.580Z,48.79
2022-11-13T22:11:58.415Z,49.17
2022-11-13T22:17:20.047Z,48.97
2022-11-13T22:22:41.681Z,49.40
2022-11-13T22:28:03.408Z,49.07
2022-11-13T22:33:33.075Z,48.86
2022-11-13T22:38:55.703Z,49.18
2022-11-13T22:44:17.410Z,49.39
2022-11-13T22:49:39.074Z,49.35
2022-11-13T22:55:01.238Z,49.23
2022-11-13T23:00:23.080Z,49.66
2022-11-13T23:05:44.795Z,49.63
2022-11-13T23:11:18.023Z,49.69
2022-11-13T23:16:39.858Z,49.63
2022-11-13T23:22:01.507Z,49.89
2022-11-13T23:27:23.276Z,49.83
2022-11-13T23:32:44.942Z,49.43
2022-11-13T23:38:06.686Z,49.45
2022-11-13T23:43:53.944Z,49.68
2022-11-13T23:49:10.829Z,49.61
2022-11-13T23:54:32.527Z,49.64
2022-11-13T23:59:54.360Z,49.46
